sensor_id;sensor_type;location;lat;lon;timestamp;temperature;humidity
22426;DHT22;11380;50.822;15.790;2023-03-01T00:01:56;-6.20;1.00
22426;DHT22;11380;50.822;15.790;2023-03-01T00:07:08;-6.20;1.00
22426;DHT22;11380;50.822;15.790;2023-03-01T00:12:15;-5.70;1.00
22426;DHT22;11380;50.822;15.790;2023-03-01T00:17:23;-5.40;1.00
22426;DHT22;11380;50.822;15.790;2023-03-01T00:22:36;-5.50;1.00
22426;DHT22;11380;50.822;15.790;2023-03-01T00:27:44;-5.20;1.00
22426;DHT22;11380;50.822;15.790;2023-03-01T00:32:54;-5.50;1.00
22426;DHT22;11380;50.822;15.790;2023-03-01T00:38:00;-6.20;1.00
22426;DHT22;11380;50.822;15.790;2023-03-01T00:43:08;-6.20;1.00
22426;DHT22;11380;50.822;15.790;2023-03-01T00:48:15;-6.10;1.00
22426;DHT22;11380;50.822;15.790;2023-03-01T00:53:22;-5.90;1.00
22426;DHT22;11380;50.822;15.790;2023-03-01T00:58:30;-6.00;1.00
22426;DHT22;11380;50.822;15.790;2023-03-01T01:03:37;-6.30;1.00
22426;DHT22;11380;50.822;15.790;2023-03-01T01:08:47;-6.30;1.00
22426;DHT22;11380;50.822;15.790;2023-03-01T01:13:54;-6.40;1.00
22426;DHT22;11380;50.822;15.790;2023-03-01T01:19:03;-6.10;1.00
22426;DHT22;11380;50.822;15.790;2023-03-01T01:24:11;-6.00;1.00
22426;DHT22;11380;50.822;15.790;2023-03-01T01:29:18;-6.50;99.90
22426;DHT22;11380;50.822;15.790;2023-03-01T01:34:26;-6.90;1.00
22426;DHT22;11380;50.822;15.790;2023-03-01T01:39:34;-7.00;1.00
22426;DHT22;11380;50.822;15.790;2023-03-01T01:44:45;-7.10;1.00
22426;DHT22;11380;50.822;15.790;2023-03-01T01:49:54;-6.50;1.00
22426;DHT22;11380;50.822;15.790;2023-03-01T01:55:11;-6.70;1.00
22426;DHT22;11380;50.822;15.790;2023-03-01T02:00:26;-6.70;1.00
22426;DHT22;11380;50.822;15.790;2023-03-01T02:05:54;-6.30;1.00
22426;DHT22;11380;50.822;15.790;2023-03-01T02:11:10;-6.50;99.90
22426;DHT22;11380;50.822;15.790;2023-03-01T02:16:20;-6.80;1.00
22426;DHT22;11380;50.822;15.790;2023-03-01T02:27:12;-6.80;1.00
22426;DHT22;11380;50.822;15.790;2023-03-01T02:32:20;-6.40;1.00
22426;DHT22;11380;50.822;15.790;2023-03-01T02:37:29;-6.60;99.90
22426;DHT22;11380;50.822;15.790;2023-03-01T02:42:45;-6.90;99.90
22426;DHT22;11380;50.822;15.790;2023-03-01T02:47:49;-6.50;1.00
22426;DHT22;11380;50.822;15.790;2023-03-01T02:53:16;-6.30;99.90
22426;DHT22;11380;50.822;15.790;2023-03-01T02:58:25;-7.00;1.00
22426;DHT22;11380;50.822;15.790;2023-03-01T03:03:33;-7.60;1.00
22426;DHT22;11380;50.822;15.790;2023-03-01T03:08:40;-6.90;1.00
22426;DHT22;11380;50.822;15.790;2023-03-01T03:13:49;-6.50;99.90
22426;DHT22;11380;50.822;15.790;2023-03-01T03:18:57;-6.30;99.90
22426;DHT22;11380;50.822;15.790;2023-03-01T03:24:05;-6.10;99.90
22426;DHT22;11380;50.822;15.790;2023-03-01T03:29:13;-6.20;99.90
22426;DHT22;11380;50.822;15.790;2023-03-01T03:34:20;-6.60;99.90
22426;DHT22;11380;50.822;15.790;2023-03-01T03:39:29;-6.40;99.90
22426;DHT22;11380;50.822;15.790;2023-03-01T03:44:38;-6.80;99.90
22426;DHT22;11380;50.822;15.790;2023-03-01T03:49:45;-6.90;99.90
22426;DHT22;11380;50.822;15.790;2023-03-01T03:54:53;-6.80;99.90
22426;DHT22;11380;50.822;15.790;2023-03-01T04:00:01;-7.00;99.90
22426;DHT22;11380;50.822;15.790;2023-03-01T04:05:12;-6.70;99.90
22426;DHT22;11380;50.822;15.790;2023-03-01T04:10:21;-6.80;99.90
22426;DHT22;11380;50.822;15.790;2023-03-01T04:15:30;-7.00;99.90
22426;DHT22;11380;50.822;15.790;2023-03-01T04:20:38;-6.80;99.90
22426;DHT22;11380;50.822;15.790;2023-03-01T04:25:51;-6.80;99.90
22426;DHT22;11380;50.822;15.790;2023-03-01T04:31:12;-6.70;99.90
22426;DHT22;11380;50.822;15.790;2023-03-01T04:36:24;-6.40;99.90
22426;DHT22;11380;50.822;15.790;2023-03-01T04:41:33;-6.80;99.90
22426;DHT22;11380;50.822;15.790;2023-03-01T04:46:41;-7.10;99.90
22426;DHT22;11380;50.822;15.790;2023-03-01T04:51:50;-7.20;99.90
22426;DHT22;11380;50.822;15.790;2023-03-01T04:56:59;-6.90;99.90
22426;DHT22;11380;50.822;15.790;2023-03-01T05:02:06;-7.30;1.00
22426;DHT22;11380;50.822;15.790;2023-03-01T05:07:15;-7.10;1.00
22426;DHT22;11380;50.822;15.790;2023-03-01T05:12:24;-7.20;1.00
22426;DHT22;11380;50.822;15.790;2023-03-01T05:17:31;-7.40;1.00
22426;DHT22;11380;50.822;15.790;2023-03-01T05:22:40;-7.10;1.00
22426;DHT22;11380;50.822;15.790;2023-03-01T05:27:48;-7.80;1.00
22426;DHT22;11380;50.822;15.790;2023-03-01T05:32:57;-7.40;1.00
22426;DHT22;11380;50.822;15.790;2023-03-01T05:38:05;-7.40;1.00
22426;DHT22;11380;50.822;15.790;2023-03-01T05:43:15;-7.40;1.00
22426;DHT22;11380;50.822;15.790;2023-03-01T05:48:24;-7.30;1.00
22426;DHT22;11380;50.822;15.790;2023-03-01T05:53:31;-6.80;1.00
22426;DHT22;11380;50.822;15.790;2023-03-01T05:58:39;-7.10;1.00
22426;DHT22;11380;50.822;15.790;2023-03-01T06:03:47;-7.30;1.00
22426;DHT22;11380;50.822;15.790;2023-03-01T06:08:55;-6.80;1.00
22426;DHT22;11380;50.822;15.790;2023-03-01T06:14:07;-7.00;1.00
22426;DHT22;11380;50.822;15.790;2023-03-01T06:19:15;-7.00;1.00
22426;DHT22;11380;50.822;15.790;2023-03-01T06:24:24;-6.80;1.00
22426;DHT22;11380;50.822;15.790;2023-03-01T06:29:32;-6.50;1.00
22426;DHT22;11380;50.822;15.790;2023-03-01T06:34:40;-6.40;1.00
22426;DHT22;11380;50.822;15.790;2023-03-01T06:39:47;-6.30;1.00
22426;DHT22;11380;50.822;15.790;2023-03-01T06:44:56;-6.20;1.00
22426;DHT22;11380;50.822;15.790;2023-03-01T06:50:04;-5.90;1.00
22426;DHT22;11380;50.822;15.790;2023-03-01T06:55:14;-5.40;1.00
22426;DHT22;11380;50.822;15.790;2023-03-01T07:00:23;-4.90;1.00
22426;DHT22;11380;50.822;15.790;2023-03-01T07:05:33;-4.80;1.00
22426;DHT22;11380;50.822;15.790;2023-03-01T07:10:43;-4.60;99.90
22426;DHT22;11380;50.822;15.790;2023-03-01T07:15:50;-4.10;1.00
22426;DHT22;11380;50.822;15.790;2023-03-01T07:21:07;-4.00;1.00
22426;DHT22;11380;50.822;15.790;2023-03-01T07:26:16;-3.50;1.00
22426;DHT22;11380;50.822;15.790;2023-03-01T07:31:24;-3.20;1.00
22426;DHT22;11380;50.822;15.790;2023-03-01T07:36:33;-2.90;1.00
22426;DHT22;11380;50.822;15.790;2023-03-01T07:41:41;-2.50;1.00
22426;DHT22;11380;50.822;15.790;2023-03-01T07:46:48;-1.70;1.00
22426;DHT22;11380;50.822;15.790;2023-03-01T07:51:57;-1.00;1.00
22426;DHT22;11380;50.822;15.790;2023-03-01T07:57:06;-0.70;1.00
22426;DHT22;11380;50.822;15.790;2023-03-01T08:02:14;-0.20;13.00
22426;DHT22;11380;50.822;15.790;2023-03-01T08:07:22;0.20;47.50
22426;DHT22;11380;50.822;15.790;2023-03-01T08:12:32;0.30;28.50
22426;DHT22;11380;50.822;15.790;2023-03-01T08:17:40;0.60;27.30
22426;DHT22;11380;50.822;15.790;2023-03-01T08:22:47;0.80;74.20
22426;DHT22;11380;50.822;15.790;2023-03-01T08:27:55;1.20;92.30
22426;DHT22;11380;50.822;15.790;2023-03-01T08:33:03;1.20;98.30
22426;DHT22;11380;50.822;15.790;2023-03-01T08:38:12;1.40;99.90
22426;DHT22;11380;50.822;15.790;2023-03-01T08:43:19;2.00;99.90
22426;DHT22;11380;50.822;15.790;2023-03-01T08:48:31;1.70;99.90
22426;DHT22;11380;50.822;15.790;2023-03-01T08:53:38;1.80;99.90
22426;DHT22;11380;50.822;15.790;2023-03-01T08:58:47;2.00;99.90
22426;DHT22;11380;50.822;15.790;2023-03-01T09:03:56;2.30;99.90
22426;DHT22;11380;50.822;15.790;2023-03-01T09:09:06;1.90;99.90
22426;DHT22;11380;50.822;15.790;2023-03-01T09:14:16;2.30;99.90
22426;DHT22;11380;50.822;15.790;2023-03-01T09:19:24;1.80;99.90
22426;DHT22;11380;50.822;15.790;2023-03-01T09:24:33;1.50;99.90
22426;DHT22;11380;50.822;15.790;2023-03-01T09:29:40;2.10;99.90
22426;DHT22;11380;50.822;15.790;2023-03-01T09:34:47;2.50;99.90
22426;DHT22;11380;50.822;15.790;2023-03-01T09:40:18;3.10;98.90
22426;DHT22;11380;50.822;15.790;2023-03-01T09:45:30;4.30;97.90
22426;DHT22;11380;50.822;15.790;2023-03-01T09:50:45;4.60;95.30
22426;DHT22;11380;50.822;15.790;2023-03-01T09:56:00;4.10;93.60
22426;DHT22;11380;50.822;15.790;2023-03-01T10:01:28;4.80;93.00
22426;DHT22;11380;50.822;15.790;2023-03-01T10:06:44;5.10;93.80
22426;DHT22;11380;50.822;15.790;2023-03-01T10:11:55;5.50;92.20
22426;DHT22;11380;50.822;15.790;2023-03-01T10:22:32;5.30;88.80
22426;DHT22;11380;50.822;15.790;2023-03-01T10:27:53;5.90;88.90
22426;DHT22;11380;50.822;15.790;2023-03-01T10:33:01;6.40;85.50
22426;DHT22;11380;50.822;15.790;2023-03-01T10:38:14;6.60;89.20
22426;DHT22;11380;50.822;15.790;2023-03-01T10:43:22;6.60;83.80
22426;DHT22;11380;50.822;15.790;2023-03-01T10:48:35;6.60;80.20
22426;DHT22;11380;50.822;15.790;2023-03-01T10:53:51;6.90;82.30
22426;DHT22;11380;50.822;15.790;2023-03-01T10:59:17;6.20;78.60
22426;DHT22;11380;50.822;15.790;2023-03-01T11:04:13;6.40;80.80
22426;DHT22;11380;50.822;15.790;2023-03-01T11:09:23;6.10;77.10
22426;DHT22;11380;50.822;15.790;2023-03-01T11:14:36;6.80;75.50
22426;DHT22;11380;50.822;15.790;2023-03-01T11:20:00;6.30;73.10
22426;DHT22;11380;50.822;15.790;2023-03-01T11:25:11;6.50;75.60
22426;DHT22;11380;50.822;15.790;2023-03-01T11:30:34;6.90;77.60
22426;DHT22;11380;50.822;15.790;2023-03-01T11:35:53;6.70;74.80
22426;DHT22;11380;50.822;15.790;2023-03-01T11:41:31;7.20;74.80
22426;DHT22;11380;50.822;15.790;2023-03-01T11:47:04;6.90;76.40
22426;DHT22;11380;50.822;15.790;2023-03-01T12:13:50;7.40;74.10
22426;DHT22;11380;50.822;15.790;2023-03-01T12:41:53;6.90;72.90
22426;DHT22;11380;50.822;15.790;2023-03-01T12:52:57;7.30;73.60
22426;DHT22;11380;50.822;15.790;2023-03-01T13:03:25;6.90;70.10
22426;DHT22;11380;50.822;15.790;2023-03-01T13:09:05;7.10;72.30
22426;DHT22;11380;50.822;15.790;2023-03-01T13:19:32;6.80;72.50
22426;DHT22;11380;50.822;15.790;2023-03-01T13:24:42;7.00;76.00
22426;DHT22;11380;50.822;15.790;2023-03-01T13:29:55;7.00;74.00
22426;DHT22;11380;50.822;15.790;2023-03-01T13:45:39;6.70;75.50
22426;DHT22;11380;50.822;15.790;2023-03-01T13:51:06;6.70;76.80
22426;DHT22;11380;50.822;15.790;2023-03-01T13:56:27;6.20;76.60
22426;DHT22;11380;50.822;15.790;2023-03-01T14:01:36;5.90;77.70
22426;DHT22;11380;50.822;15.790;2023-03-01T14:06:45;5.40;76.90
22426;DHT22;11380;50.822;15.790;2023-03-01T14:12:04;5.10;77.00
22426;DHT22;11380;50.822;15.790;2023-03-01T14:23:01;4.50;81.70
22426;DHT22;11380;50.822;15.790;2023-03-01T14:28:20;4.10;81.60
22426;DHT22;11380;50.822;15.790;2023-03-01T14:33:34;3.90;81.60
22426;DHT22;11380;50.822;15.790;2023-03-01T14:38:44;3.80;83.70
22426;DHT22;11380;50.822;15.790;2023-03-01T14:43:58;3.90;86.10
22426;DHT22;11380;50.822;15.790;2023-03-01T14:49:19;4.20;87.90
22426;DHT22;11380;50.822;15.790;2023-03-01T14:54:34;3.90;84.80
22426;DHT22;11380;50.822;15.790;2023-03-01T14:59:42;3.80;83.30
22426;DHT22;11380;50.822;15.790;2023-03-01T15:04:57;3.70;85.10
22426;DHT22;11380;50.822;15.790;2023-03-01T15:10:14;3.70;86.70
22426;DHT22;11380;50.822;15.790;2023-03-01T15:20:41;3.70;86.30
22426;DHT22;11380;50.822;15.790;2023-03-01T15:25:51;3.60;88.20
22426;DHT22;11380;50.822;15.790;2023-03-01T15:36:36;3.50;87.00
22426;DHT22;11380;50.822;15.790;2023-03-01T15:41:49;3.40;89.40
22426;DHT22;11380;50.822;15.790;2023-03-01T15:46:56;3.40;88.90
22426;DHT22;11380;50.822;15.790;2023-03-01T15:57:26;3.50;90.60
22426;DHT22;11380;50.822;15.790;2023-03-01T16:02:33;3.80;91.60
22426;DHT22;11380;50.822;15.790;2023-03-01T16:07:39;3.80;91.90
22426;DHT22;11380;50.822;15.790;2023-03-01T16:12:49;3.70;90.70
22426;DHT22;11380;50.822;15.790;2023-03-01T16:17:57;3.40;90.70
22426;DHT22;11380;50.822;15.790;2023-03-01T16:23:07;3.30;91.40
22426;DHT22;11380;50.822;15.790;2023-03-01T16:28:16;2.90;93.10
22426;DHT22;11380;50.822;15.790;2023-03-01T16:33:23;2.40;94.70
22426;DHT22;11380;50.822;15.790;2023-03-01T16:38:32;2.00;96.00
22426;DHT22;11380;50.822;15.790;2023-03-01T16:43:40;2.00;94.10
22426;DHT22;11380;50.822;15.790;2023-03-01T16:48:49;1.80;96.40
22426;DHT22;11380;50.822;15.790;2023-03-01T16:53:56;1.60;99.00
22426;DHT22;11380;50.822;15.790;2023-03-01T16:59:03;0.90;1.00
22426;DHT22;11380;50.822;15.790;2023-03-01T17:04:12;1.00;1.00
22426;DHT22;11380;50.822;15.790;2023-03-01T17:09:19;1.20;1.00
22426;DHT22;11380;50.822;15.790;2023-03-01T17:14:28;1.00;1.00
22426;DHT22;11380;50.822;15.790;2023-03-01T17:19:36;0.80;1.00
22426;DHT22;11380;50.822;15.790;2023-03-01T17:24:48;0.80;1.00
22426;DHT22;11380;50.822;15.790;2023-03-01T17:29:56;0.80;1.00
22426;DHT22;11380;50.822;15.790;2023-03-01T17:35:04;0.70;1.00
22426;DHT22;11380;50.822;15.790;2023-03-01T17:40:12;0.50;1.00
22426;DHT22;11380;50.822;15.790;2023-03-01T17:45:19;0.70;1.00
22426;DHT22;11380;50.822;15.790;2023-03-01T17:50:28;0.60;1.00
22426;DHT22;11380;50.822;15.790;2023-03-01T17:55:37;0.60;1.00
22426;DHT22;11380;50.822;15.790;2023-03-01T18:00:45;0.50;1.00
22426;DHT22;11380;50.822;15.790;2023-03-01T18:05:53;0.40;1.00
22426;DHT22;11380;50.822;15.790;2023-03-01T18:11:06;0.40;1.00
22426;DHT22;11380;50.822;15.790;2023-03-01T18:16:16;-0.30;1.00
22426;DHT22;11380;50.822;15.790;2023-03-01T18:21:29;-0.80;1.00
22426;DHT22;11380;50.822;15.790;2023-03-01T18:26:38;-0.40;1.00
22426;DHT22;11380;50.822;15.790;2023-03-01T18:31:49;-0.40;1.00
22426;DHT22;11380;50.822;15.790;2023-03-01T18:36:59;-0.70;1.00
22426;DHT22;11380;50.822;15.790;2023-03-01T18:42:11;-0.70;1.00
22426;DHT22;11380;50.822;15.790;2023-03-01T18:47:22;-0.50;1.00
22426;DHT22;11380;50.822;15.790;2023-03-01T18:52:33;-0.90;1.00
22426;DHT22;11380;50.822;15.790;2023-03-01T18:57:44;-1.30;1.00
22426;DHT22;11380;50.822;15.790;2023-03-01T19:03:09;-0.80;1.00
22426;DHT22;11380;50.822;15.790;2023-03-01T19:08:18;-1.20;1.00
22426;DHT22;11380;50.822;15.790;2023-03-01T19:13:28;-1.10;1.00
22426;DHT22;11380;50.822;15.790;2023-03-01T19:18:38;-1.20;1.00
22426;DHT22;11380;50.822;15.790;2023-03-01T19:23:47;-1.00;1.00
22426;DHT22;11380;50.822;15.790;2023-03-01T19:28:56;-1.20;1.00
22426;DHT22;11380;50.822;15.790;2023-03-01T19:34:05;-1.00;1.00
22426;DHT22;11380;50.822;15.790;2023-03-01T19:39:18;-0.90;1.00
22426;DHT22;11380;50.822;15.790;2023-03-01T19:44:28;-1.10;1.00
22426;DHT22;11380;50.822;15.790;2023-03-01T19:49:38;-1.20;1.00
22426;DHT22;11380;50.822;15.790;2023-03-01T19:54:49;-1.40;1.00
22426;DHT22;11380;50.822;15.790;2023-03-01T20:00:00;-1.20;1.00
22426;DHT22;11380;50.822;15.790;2023-03-01T20:05:08;-1.70;1.00
22426;DHT22;11380;50.822;15.790;2023-03-01T20:10:19;-1.60;1.00
22426;DHT22;11380;50.822;15.790;2023-03-01T20:15:43;-2.10;1.00
22426;DHT22;11380;50.822;15.790;2023-03-01T20:20:55;-2.10;1.00
22426;DHT22;11380;50.822;15.790;2023-03-01T20:26:10;-1.90;1.00
22426;DHT22;11380;50.822;15.790;2023-03-01T20:31:22;-1.70;1.00
22426;DHT22;11380;50.822;15.790;2023-03-01T20:36:32;-2.10;1.00
22426;DHT22;11380;50.822;15.790;2023-03-01T20:41:45;-2.30;1.00
22426;DHT22;11380;50.822;15.790;2023-03-01T20:46:56;-2.10;1.00
22426;DHT22;11380;50.822;15.790;2023-03-01T20:52:05;-2.10;1.00
22426;DHT22;11380;50.822;15.790;2023-03-01T20:57:14;-2.20;1.00
22426;DHT22;11380;50.822;15.790;2023-03-01T21:02:25;-1.80;1.00
22426;DHT22;11380;50.822;15.790;2023-03-01T21:07:36;-2.20;1.00
22426;DHT22;11380;50.822;15.790;2023-03-01T21:12:43;-2.30;1.00
22426;DHT22;11380;50.822;15.790;2023-03-01T21:18:09;-2.40;1.00
22426;DHT22;11380;50.822;15.790;2023-03-01T21:23:18;-2.20;1.00
22426;DHT22;11380;50.822;15.790;2023-03-01T21:28:28;-2.20;1.00
22426;DHT22;11380;50.822;15.790;2023-03-01T21:33:42;-2.40;1.00
22426;DHT22;11380;50.822;15.790;2023-03-01T21:38:53;-2.90;1.00
22426;DHT22;11380;50.822;15.790;2023-03-01T21:44:03;-2.80;1.00
22426;DHT22;11380;50.822;15.790;2023-03-01T21:49:12;-2.80;1.00
22426;DHT22;11380;50.822;15.790;2023-03-01T21:54:20;-2.70;1.00
22426;DHT22;11380;50.822;15.790;2023-03-01T21:59:28;-2.90;1.00
22426;DHT22;11380;50.822;15.790;2023-03-01T22:04:36;-2.80;1.00
22426;DHT22;11380;50.822;15.790;2023-03-01T22:09:43;-2.60;1.00
22426;DHT22;11380;50.822;15.790;2023-03-01T22:14:51;-3.40;1.00
22426;DHT22;11380;50.822;15.790;2023-03-01T22:19:58;-3.50;1.00
22426;DHT22;11380;50.822;15.790;2023-03-01T22:25:06;-3.30;1.00
22426;DHT22;11380;50.822;15.790;2023-03-01T22:30:14;-3.50;1.00
22426;DHT22;11380;50.822;15.790;2023-03-01T22:35:24;-3.60;1.00
22426;DHT22;11380;50.822;15.790;2023-03-01T22:40:33;-3.50;1.00
22426;DHT22;11380;50.822;15.790;2023-03-01T22:45:43;-3.60;1.00
22426;DHT22;11380;50.822;15.790;2023-03-01T22:50:51;-3.40;1.00
22426;DHT22;11380;50.822;15.790;2023-03-01T22:56:14;-3.30;1.00
22426;DHT22;11380;50.822;15.790;2023-03-01T23:01:24;-3.80;1.00
22426;DHT22;11380;50.822;15.790;2023-03-01T23:06:31;-3.80;1.00
22426;DHT22;11380;50.822;15.790;2023-03-01T23:11:39;-3.40;1.00
22426;DHT22;11380;50.822;15.790;2023-03-01T23:16:48;-3.50;1.00
22426;DHT22;11380;50.822;15.790;2023-03-01T23:21:56;-3.50;1.00
22426;DHT22;11380;50.822;15.790;2023-03-01T23:27:06;-3.80;1.00
22426;DHT22;11380;50.822;15.790;2023-03-01T23:32:14;-3.80;1.00
22426;DHT22;11380;50.822;15.790;2023-03-01T23:37:22;-4.20;1.00
22426;DHT22;11380;50.822;15.790;2023-03-01T23:42:33;-4.00;1.00
22426;DHT22;11380;50.822;15.790;2023-03-01T23:47:40;-4.00;1.00
22426;DHT22;11380;50.822;15.790;2023-03-01T23:52:51;-4.90;1.00
22426;DHT22;11380;50.822;15.790;2023-03-01T23:57:58;-4.70;1.00
